createdAt,value
2019-03-28T00:01:24.106Z,87.00
2019-03-28T00:03:52.531Z,87.40
2019-03-28T00:06:21.179Z,87.20
2019-03-28T00:08:49.637Z,87.60
2019-03-28T00:11:18.063Z,87.80
2019-03-28T00:13:46.487Z,87.70
2019-03-28T00:16:15.140Z,87.80
2019-03-28T00:18:43.824Z,88.10
2019-03-28T00:21:12.562Z,88.40
2019-03-28T00:23:57.791Z,88.80
2019-03-28T00:26:30.530Z,88.60
2019-03-28T00:28:56.614Z,88.20
2019-03-28T00:31:25.051Z,87.80
2019-03-28T00:33:53.482Z,87.50
2019-03-28T00:36:22.122Z,87.30
2019-03-28T00:38:50.581Z,87.20
2019-03-28T00:41:19.005Z,87.70
2019-03-28T00:43:47.684Z,87.90
2019-03-28T00:46:16.781Z,87.60
2019-03-28T00:48:45.206Z,87.30
2019-03-28T00:51:13.635Z,87.00
2019-03-28T00:53:42.055Z,87.10
2019-03-28T00:56:10.494Z,87.00
2019-03-28T00:58:38.910Z,87.10
2019-03-28T01:01:07.557Z,87.60
2019-03-28T01:03:36.443Z,88.80
2019-03-28T01:06:05.220Z,89.20
2019-03-28T01:08:33.635Z,89.00
2019-03-28T01:11:02.066Z,88.70
2019-03-28T01:13:30.488Z,88.40
2019-03-28T01:15:59.129Z,88.10
2019-03-28T01:18:27.595Z,88.20
2019-03-28T01:20:56.270Z,88.70
2019-03-28T01:23:24.950Z,88.70
2019-03-28T01:25:53.417Z,88.60
2019-03-28T01:28:21.880Z,88.40
2019-03-28T01:30:50.307Z,88.40
2019-03-28T01:33:18.722Z,88.80
2019-03-28T01:35:47.164Z,89.60
2019-03-28T01:38:15.584Z,90.10
2019-03-28T01:40:44.006Z,90.20
2019-03-28T01:43:12.442Z,90.30
2019-03-28T01:45:40.866Z,90.20
2019-03-28T01:48:09.293Z,90.30
2019-03-28T01:50:37.965Z,90.70
2019-03-28T01:53:06.397Z,90.70
2019-03-28T01:55:34.814Z,90.40
2019-03-28T01:58:03.237Z,90.10
2019-03-28T02:00:31.926Z,90.00
2019-03-28T02:03:00.356Z,90.10
2019-03-28T02:05:28.769Z,90.00
2019-03-28T02:07:57.198Z,90.00
2019-03-28T02:10:25.848Z,90.00
2019-03-28T02:12:54.326Z,90.00
2019-03-28T02:15:22.749Z,90.20
2019-03-28T02:17:51.179Z,90.40
2019-03-28T02:20:19.850Z,90.50
2019-03-28T02:22:48.275Z,90.50
2019-03-28T02:25:17.309Z,90.70
2019-03-28T02:27:46.097Z,91.10
2019-03-28T02:30:14.802Z,91.30
2019-03-28T02:32:43.222Z,91.50
2019-03-28T02:35:11.907Z,91.70
2019-03-28T02:37:40.333Z,91.70
2019-03-28T02:40:08.907Z,91.40
2019-03-28T02:42:37.588Z,91.10
2019-03-28T02:45:07.353Z,90.90
2019-03-28T02:47:36.130Z,90.80
2019-03-28T02:50:06.305Z,90.70
2019-03-28T02:52:34.730Z,90.70
2019-03-28T02:55:03.579Z,90.70
2019-03-28T02:57:40.847Z,90.90
2019-03-28T03:00:02.444Z,91.00
2019-03-28T03:02:30.877Z,91.10
2019-03-28T03:04:59.285Z,91.00
2019-03-28T03:07:27.713Z,91.10
2019-03-28T03:09:56.392Z,91.10
2019-03-28T03:12:24.816Z,91.30
2019-03-28T03:14:53.233Z,91.30
2019-03-28T03:17:21.865Z,91.30
2019-03-28T03:19:51.405Z,91.20
2019-03-28T03:22:19.939Z,91.20
2019-03-28T03:24:48.367Z,91.30
2019-03-28T03:27:17.040Z,91.30
2019-03-28T03:29:45.758Z,91.20
2019-03-28T03:32:14.191Z,91.20
2019-03-28T03:34:42.607Z,91.20
2019-03-28T03:37:11.094Z,91.00
2019-03-28T03:39:39.824Z,91.00
2019-03-28T03:42:08.519Z,91.00
2019-03-28T03:44:36.956Z,91.00
2019-03-28T03:47:05.619Z,91.00
2019-03-28T03:49:34.041Z,91.00
2019-03-28T03:52:02.707Z,91.00
2019-03-28T03:54:31.138Z,91.00
2019-03-28T03:56:59.554Z,90.90
2019-03-28T03:59:28.200Z,90.90
2019-03-28T04:01:56.671Z,90.90
2019-03-28T04:04:25.112Z,91.00
2019-03-28T04:06:53.532Z,91.30
2019-03-28T04:09:21.975Z,91.40
2019-03-28T04:11:50.399Z,91.40
2019-03-28T04:14:19.050Z,91.30
2019-03-28T04:16:47.498Z,91.10
2019-03-28T04:19:15.936Z,91.00
2019-03-28T04:21:44.373Z,91.00
2019-03-28T04:24:12.812Z,90.90
2019-03-28T04:26:41.464Z,91.00
2019-03-28T04:29:09.930Z,90.60
2019-03-28T04:31:38.352Z,90.50
2019-03-28T04:34:08.758Z,90.50
2019-03-28T04:36:37.405Z,90.40
2019-03-28T04:39:06.287Z,90.40
2019-03-28T04:41:34.758Z,90.50
2019-03-28T04:44:03.435Z,90.50
2019-03-28T04:46:32.075Z,90.40
2019-03-28T04:49:00.560Z,90.30
2019-03-28T04:51:28.977Z,90.30
2019-03-28T04:53:57.639Z,90.10
2019-03-28T04:56:26.065Z,90.10
2019-03-28T04:58:54.482Z,90.00
2019-03-28T05:01:22.918Z,90.00
2019-03-28T05:03:51.594Z,90.00
2019-03-28T05:06:20.239Z,90.00
2019-03-28T05:08:48.700Z,90.00
2019-03-28T05:11:17.342Z,90.00
2019-03-28T05:13:45.797Z,90.00
2019-03-28T05:16:14.478Z,90.10
2019-03-28T05:18:43.149Z,90.10
2019-03-28T05:21:11.581Z,90.00
2019-03-28T05:23:40.576Z,89.80
2019-03-28T05:26:09.187Z,89.40
2019-03-28T05:28:37.605Z,89.30
2019-03-28T05:31:06.251Z,88.80
2019-03-28T05:33:34.927Z,88.40
2019-03-28T05:36:04.537Z,87.90
2019-03-28T05:38:33.153Z,87.70
2019-03-28T05:41:01.581Z,87.20
2019-03-28T05:43:29.997Z,86.60
2019-03-28T05:45:58.686Z,86.40
2019-03-28T05:48:27.107Z,86.30
2019-03-28T05:50:55.810Z,86.40
2019-03-28T05:53:24.297Z,86.90
2019-03-28T05:55:54.866Z,86.70
2019-03-28T05:58:23.294Z,86.00
2019-03-28T06:00:51.726Z,85.90
2019-03-28T06:03:20.393Z,85.50
2019-03-28T06:05:48.821Z,85.30
2019-03-28T06:08:17.397Z,85.20
2019-03-28T06:10:46.085Z,84.70
2019-03-28T06:13:14.505Z,84.70
2019-03-28T06:15:42.941Z,84.70
2019-03-28T06:18:11.357Z,84.00
2019-03-28T06:20:39.810Z,82.80
2019-03-28T06:23:08.237Z,82.90
2019-03-28T06:25:39.450Z,82.90
2019-03-28T06:28:06.886Z,82.40
2019-03-28T06:30:35.326Z,81.70
2019-03-28T06:33:03.737Z,80.90
2019-03-28T06:35:32.222Z,80.30
2019-03-28T06:38:00.630Z,79.80
2019-03-28T06:40:29.065Z,79.10
2019-03-28T06:42:57.485Z,79.20
2019-03-28T06:45:25.912Z,78.70
2019-03-28T06:47:54.366Z,77.00
2019-03-28T06:50:22.787Z,77.40
2019-03-28T06:52:51.215Z,77.00
2019-03-28T06:55:19.637Z,76.30
2019-03-28T06:57:48.057Z,75.30
2019-03-28T07:00:17.670Z,73.80
2019-03-28T07:02:46.104Z,73.30
2019-03-28T07:05:14.661Z,73.00
2019-03-28T07:07:43.094Z,71.90
2019-03-28T07:10:12.014Z,70.60
2019-03-28T07:12:40.711Z,70.10
2019-03-28T07:15:10.306Z,70.60
2019-03-28T07:17:38.733Z,69.20
2019-03-28T07:20:09.245Z,69.20
2019-03-28T07:22:37.929Z,68.60
2019-03-28T07:25:07.485Z,68.90
2019-03-28T07:27:35.909Z,68.20
2019-03-28T07:30:07.262Z,67.80
2019-03-28T07:32:35.701Z,67.40
2019-03-28T07:35:06.256Z,65.90
2019-03-28T07:37:34.725Z,64.90
2019-03-28T07:40:04.414Z,64.10
2019-03-28T07:42:32.849Z,63.90
2019-03-28T07:45:01.480Z,62.80
2019-03-28T07:47:29.955Z,62.80
2019-03-28T07:49:58.370Z,61.80
2019-03-28T07:52:27.619Z,61.60
2019-03-28T07:54:56.333Z,60.80
2019-03-28T07:57:24.778Z,59.70
2019-03-28T08:00:03.633Z,59.60
2019-03-28T08:02:23.353Z,58.20
2019-03-28T08:04:51.804Z,58.50
2019-03-28T08:07:20.258Z,56.90
2019-03-28T08:09:48.691Z,55.00
2019-03-28T08:12:22.827Z,54.80
2019-03-28T08:14:50.879Z,53.60
2019-03-28T08:17:19.591Z,54.20
2019-03-28T08:19:48.010Z,51.10
2019-03-28T08:22:16.440Z,50.60
2019-03-28T08:24:46.265Z,50.70
2019-03-28T08:27:14.842Z,47.20
2019-03-28T08:29:43.299Z,45.60
2019-03-28T08:32:13.719Z,42.50
2019-03-28T08:34:42.280Z,40.10
2019-03-28T08:37:11.151Z,38.10
2019-03-28T08:39:39.722Z,34.30
2019-03-28T08:42:08.405Z,28.20
2019-03-28T08:44:37.054Z,27.30
2019-03-28T08:47:06.326Z,26.50
2019-03-28T08:49:35.249Z,26.00
2019-03-28T08:52:03.699Z,24.80
2019-03-28T08:54:32.129Z,23.90
2019-03-28T08:57:00.539Z,22.40
2019-03-28T08:59:44.166Z,19.50
2019-03-28T09:02:30.813Z,17.40
2019-03-28T09:04:59.246Z,16.70
2019-03-28T09:07:27.677Z,16.40
2019-03-28T09:09:56.105Z,16.60
2019-03-28T09:12:24.532Z,14.50
2019-03-28T09:14:53.007Z,13.00
2019-03-28T09:17:23.829Z,13.00
2019-03-28T09:19:51.663Z,12.80
2019-03-28T09:22:20.074Z,11.80
2019-03-28T09:24:48.508Z,10.00
2019-03-28T09:27:16.923Z,10.50
2019-03-28T09:29:45.358Z,10.00
2019-03-28T09:32:13.770Z,9.70
2019-03-28T09:34:42.340Z,8.70
2019-03-28T09:37:10.746Z,6.90
2019-03-28T09:39:39.182Z,5.60
2019-03-28T09:42:07.595Z,3.10
2019-03-28T09:44:36.038Z,3.60
2019-03-28T09:47:04.454Z,1.10
2019-03-28T09:49:32.883Z,1.00
